LFST/SXB METAR and TAF weather

Enter ICAO airport designator
Station Type Date Time Source
LFST METAR 2022/12/08 12:30 UTC NOAA

LFST 081230Z AUTO VRB02KT 9999 OVC042 04/01 Q1010 NOSIG


Station Type Date Time Source
LFST Decoded METAR 2022/12/08 12:30 UTC NOAA

Strasbourg, France (LFST) 48-33N 007-38E 154M
Dec 08, 2022 - 07:30 AM EST / 2022.12.08 1230 UTC
Wind: Variable at 2 MPH (2 KT):0
Visibility: greater than 7 mile(s):0
Sky conditions: overcast
Temperature: 39 F (4 C)
Dew Point: 33 F (1 C)
Relative Humidity: 80%
Pressure (altimeter): 29.83 in. Hg (1010 hPa)
ob: LFST 081230Z AUTO VRB02KT 9999 OVC042 04/01 Q1010 NOSIG
cycle: 12

Station Type Date Time Source
LFST TAF 2022/12/08 12:21 UTC NOAA

TAF LFST 081100Z 0812/0912 VRB03KT 8000 FEW005 BKN040
TEMPO 0817/0824 4000 BR
TEMPO 0903/0912 BKN009

Example: see airport list